You are listening to:
KSAR CTAF - Sparta, Illinois, United States

KSAR 040015Z AUTO 21010G14KT 170V230 10SM CLR 30/22 A2984 RMK AO2 T02950223

If stream doesn't start automatically press the play button
If stream stops then reload player then press play